Vorselaar, Belgium
Current Conditions -  °F | °C
As of 12:20 PM on Thursday 23 Oct 2014 (Local Time) from EBAW Reporting Station
Scattered Clouds Scattered Clouds  
Wind Chill: 55°   Ceiling: Unl
Heat Index: 55°   Visibility: 6mi
Dew Point: 48°   Wind: 10mph
Humidity: 77%   Direction: 200°SSW
Pressure: 30.21"   Gusts: NA
Location:  51.2°N, 4.77°E
Report Text: EBAW 231020Z 20009KT 9999 SCT040 13/09 Q1023 NOSIG
Loading
Personal Weather Stations






























Interactive Weather Map
Tropical Storm Tracking
New forecast layout! Learn more

10-Day Weather Forecast

Advertisements
Track Severe Weather on mobile